Time;durP1;ratioP1;P1;durP2;ratioP2;P2;SDS_P1;SDS_P2;PMS_P1;PMS_P2;Temp;Humidity;BMP_temperature;BMP_pressure;BME280_temperature;BME280_humidity;BME280_pressure;Samples;Min_cycle;Max_cycle;Signal;HPM_P1;HPM_P2
2021/09/29 00:01:27;;;;;;;11.37;10.00;;;13.90;1.00;;;;;;4997744;28;20573;-81
2021/09/29 00:03:57;;;;;;;12.67;11.33;;;13.90;1.00;;;;;;4992555;28;20447;-82
2021/09/29 00:06:24;;;;;;;13.70;12.00;;;13.80;1.00;;;;;;4990373;28;20462;-82
2021/09/29 00:08:54;;;;;;;12.20;10.50;;;13.80;1.00;;;;;;4977298;28;21417;-80
2021/09/29 00:11:20;;;;;;;13.63;11.70;;;13.90;1.00;;;;;;4990224;28;20467;-80
2021/09/29 00:13:49;;;;;;;13.87;12.40;;;13.80;1.00;;;;;;4995046;28;20474;-81
2021/09/29 00:16:16;;;;;;;12.73;11.17;;;13.80;1.00;;;;;;4990419;28;20432;-83
2021/09/29 00:18:43;;;;;;;14.37;10.30;;;13.80;1.00;;;;;;4989414;28;20454;-81
2021/09/29 00:21:11;;;;;;;10.60;9.47;;;13.80;1.00;;;;;;4990425;28;20434;-83
2021/09/29 00:23:38;;;;;;;12.80;10.00;;;13.80;1.00;;;;;;4994287;28;20416;-83
2021/09/29 00:26:04;;;;;;;11.10;9.60;;;13.80;1.00;;;;;;4991067;28;20502;-81
2021/09/29 00:28:31;;;;;;;18.53;10.13;;;13.70;1.00;;;;;;4989859;28;20459;-83
2021/09/29 00:31:04;;;;;;;11.50;9.20;;;13.70;1.00;;;;;;4996978;28;20463;-81
2021/09/29 00:33:31;;;;;;;12.63;10.63;;;13.70;1.00;;;;;;4998980;28;20441;-84
2021/09/29 00:35:59;;;;;;;11.17;9.83;;;13.70;1.00;;;;;;5002752;28;21301;-81
2021/09/29 00:38:30;;;;;;;13.70;10.40;;;13.60;1.00;;;;;;5008753;28;21033;-80
2021/09/29 00:40:57;;;;;;;10.57;9.57;;;13.60;1.00;;;;;;4997413;28;20960;-81
2021/09/29 00:43:24;;;;;;;12.10;10.90;;;13.50;1.00;;;;;;4999777;28;21457;-81
2021/09/29 00:45:50;;;;;;;12.63;10.23;;;13.50;1.00;;;;;;4996052;28;20580;-80
2021/09/29 00:48:17;;;;;;;11.67;10.47;;;13.40;1.00;;;;;;4994661;28;20462;-81
2021/09/29 00:50:45;;;;;;;13.90;10.80;;;13.40;1.00;;;;;;4999248;28;20849;-82
2021/09/29 00:53:11;;;;;;;11.43;9.27;;;13.40;1.00;;;;;;4984140;28;20461;-80
2021/09/29 00:55:39;;;;;;;11.07;9.53;;;13.30;1.00;;;;;;4998046;28;20922;-80
2021/09/29 00:58:06;;;;;;;11.00;9.83;;;13.30;1.00;;;;;;4994392;28;20459;-80
2021/09/29 01:00:33;;;;;;;11.13;10.03;;;13.30;1.00;;;;;;4999024;28;20581;-81
2021/09/29 01:03:00;;;;;;;13.27;10.67;;;13.40;1.00;;;;;;4992603;28;20761;-82
2021/09/29 01:05:27;;;;;;;12.47;9.97;;;13.30;1.00;;;;;;5003899;28;20462;-80
2021/09/29 01:08:01;;;;;;;10.43;9.37;;;13.30;1.00;;;;;;4993400;28;21129;-81
2021/09/29 01:10:34;;;;;;;10.20;9.10;;;13.30;1.00;;;;;;4988702;28;20504;-81
2021/09/29 01:13:10;;;;;;;11.13;8.80;;;13.20;1.00;;;;;;4990143;28;20481;-82
2021/09/29 01:15:45;;;;;;;12.10;9.63;;;13.20;1.00;;;;;;4984474;28;20446;-81
2021/09/29 01:18:15;;;;;;;14.00;9.90;;;13.10;1.00;;;;;;4982297;28;20438;-79
2021/09/29 01:20:45;;;;;;;11.10;9.97;;;13.10;1.00;;;;;;4991575;28;22945;-82
2021/09/29 01:23:32;;;;;;;10.50;9.50;;;13.10;1.00;;;;;;4985673;28;20458;-80
2021/09/29 01:26:15;;;;;;;13.10;11.70;;;13.10;1.00;;;;;;4986706;28;21503;-81
2021/09/29 01:28:46;;;;;;;9.87;8.73;;;13.00;1.00;;;;;;4985127;28;20414;-79
2021/09/29 01:31:15;;;;;;;14.83;10.30;;;13.10;1.00;;;;;;4986934;28;20435;-79
2021/09/29 01:33:44;;;;;;;11.13;9.87;;;13.10;1.00;;;;;;4984035;28;23051;-80
2021/09/29 01:36:11;;;;;;;10.60;8.97;;;13.10;1.00;;;;;;4983269;28;20626;-82
2021/09/29 01:38:42;;;;;;;11.33;8.77;;;13.20;1.00;;;;;;4983947;28;20474;-80
2021/09/29 01:41:09;;;;;;;9.60;8.60;;;13.30;1.00;;;;;;5008153;28;20511;-80
2021/09/29 01:43:40;;;;;;;11.77;10.10;;;13.40;1.00;;;;;;4985572;28;20509;-81
2021/09/29 01:46:08;;;;;;;11.87;9.30;;;13.50;1.00;;;;;;4994477;28;20442;-81
2021/09/29 01:48:50;;;;;;;10.63;9.00;;;13.50;1.00;;;;;;4972765;28;20446;-84
2021/09/29 01:51:18;;;;;;;12.20;9.37;;;13.70;1.00;;;;;;4988331;28;21349;-80
2021/09/29 01:53:47;;;;;;;9.57;8.57;;;13.70;1.00;;;;;;4988424;28;20429;-82
2021/09/29 01:56:15;;;;;;;10.30;9.27;;;13.80;1.00;;;;;;4985879;28;20546;-83
2021/09/29 01:58:43;;;;;;;12.50;8.60;;;13.80;1.00;;;;;;4986976;28;20541;-81
2021/09/29 02:01:10;;;;;;;12.57;9.67;;;13.80;1.00;;;;;;4987694;28;20443;-83
2021/09/29 02:03:37;;;;;;;10.70;9.23;;;13.90;1.00;;;;;;4985924;28;20475;-85
2021/09/29 02:06:04;;;;;;;10.53;8.43;;;14.00;1.00;;;;;;4990465;28;20458;-85
2021/09/29 02:08:31;;;;;;;10.27;8.50;;;14.00;1.00;;;;;;4988026;28;21095;-82
2021/09/29 02:10:57;;;;;;;9.73;8.07;;;14.00;1.00;;;;;;4990128;28;20471;-82
2021/09/29 02:13:24;;;;;;;9.73;8.70;;;14.10;1.00;;;;;;4988147;28;21201;-82
2021/09/29 02:15:53;;;;;;;11.57;9.07;;;14.20;1.00;;;;;;4986710;28;20473;-82
2021/09/29 02:18:19;;;;;;;13.67;9.37;;;14.20;1.00;;;;;;4987634;28;20488;-81
2021/09/29 02:20:46;;;;;;;12.47;9.33;;;14.30;1.00;;;;;;4986254;28;20447;-82
2021/09/29 02:23:13;;;;;;;10.63;9.00;;;14.30;1.00;;;;;;4989990;28;20474;-83
2021/09/29 02:25:41;;;;;;;13.63;10.20;;;14.30;1.00;;;;;;4987782;28;20443;-82
2021/09/29 02:28:08;;;;;;;13.37;10.60;;;14.30;1.00;;;;;;4987555;28;20451;-83
2021/09/29 02:30:35;;;;;;;13.20;10.03;;;14.30;1.00;;;;;;4985791;28;20467;-81
2021/09/29 02:33:04;;;;;;;16.30;11.00;;;14.30;1.00;;;;;;4990029;28;20903;-80
2021/09/29 02:35:31;;;;;;;14.03;11.17;;;14.30;1.00;;;;;;4972951;28;20485;-80
2021/09/29 02:37:57;;;;;;;18.00;11.40;;;14.30;1.00;;;;;;4987438;28;20447;-82
2021/09/29 02:40:24;;;;;;;17.97;12.53;;;14.30;1.00;;;;;;4980471;28;20516;-82
2021/09/29 02:42:53;;;;;;;16.37;11.60;;;14.30;1.00;;;;;;4981406;28;21681;-81
2021/09/29 02:45:20;;;;;;;19.30;12.07;;;14.30;1.00;;;;;;4989359;28;20505;-79
2021/09/29 02:47:47;;;;;;;18.07;12.73;;;14.30;1.00;;;;;;5009642;28;20469;-83
2021/09/29 02:50:16;;;;;;;23.20;13.47;;;14.30;1.00;;;;;;4988170;28;24199;-80
2021/09/29 02:52:43;;;;;;;17.80;12.60;;;14.30;1.00;;;;;;4987696;28;21240;-80
2021/09/29 02:55:10;;;;;;;18.83;13.10;;;14.30;1.00;;;;;;4987373;28;20460;-81
2021/09/29 02:57:38;;;;;;;25.53;13.83;;;14.30;1.00;;;;;;4991917;28;20601;-80
2021/09/29 03:00:10;;;;;;;25.43;13.30;;;14.30;1.00;;;;;;4985772;28;20458;-82
2021/09/29 03:02:37;;;;;;;25.37;14.80;;;14.30;1.00;;;;;;4986335;28;20566;-82
2021/09/29 03:05:04;;;;;;;25.33;15.23;;;14.30;1.00;;;;;;4988490;28;20415;-81
2021/09/29 03:07:32;;;;;;;33.97;16.60;;;14.30;1.00;;;;;;4994052;28;20509;-82
2021/09/29 03:09:59;;;;;;;25.47;16.10;;;14.30;1.00;;;;;;4990259;28;20530;-82
2021/09/29 03:12:26;;;;;;;29.10;16.50;;;14.30;1.00;;;;;;4988088;28;20551;-82
2021/09/29 03:14:52;;;;;;;29.77;16.23;;;14.40;1.00;;;;;;4986941;28;20457;-81
2021/09/29 03:17:19;;;;;;;31.37;15.87;;;14.40;1.00;;;;;;4988855;28;20540;-82
2021/09/29 03:19:50;;;;;;;33.43;16.10;;;14.40;1.00;;;;;;4988272;28;20465;-83
2021/09/29 03:22:18;;;;;;;31.23;18.13;;;14.50;1.00;;;;;;4990055;28;20427;-81
2021/09/29 03:24:46;;;;;;;27.60;15.77;;;14.40;1.00;;;;;;4989037;28;20464;-83
2021/09/29 03:27:13;;;;;;;35.63;17.23;;;14.40;1.00;;;;;;4987325;28;20499;-82
2021/09/29 03:29:40;;;;;;;35.97;18.10;;;14.50;1.00;;;;;;4986307;28;20470;-84
2021/09/29 03:32:09;;;;;;;41.40;20.07;;;14.50;1.00;;;;;;4994156;28;20463;-83
2021/09/29 03:34:36;;;;;;;39.87;20.17;;;14.50;1.00;;;;;;4987523;28;20474;-83
2021/09/29 03:37:03;;;;;;;37.67;20.27;;;14.50;1.00;;;;;;4995778;28;20459;-80
2021/09/29 03:39:31;;;;;;;37.83;22.37;;;14.50;1.00;;;;;;4982223;28;21086;-83
2021/09/29 03:42:00;;;;;;;40.33;22.17;;;14.50;1.00;;;;;;4971978;28;20469;-81
2021/09/29 03:44:27;;;;;;;52.83;25.07;;;14.50;1.00;;;;;;5002711;28;20434;-83
2021/09/29 03:46:54;;;;;;;49.10;24.20;;;14.50;1.00;;;;;;5006464;28;20445;-81
2021/09/29 03:49:20;;;;;;;51.73;24.70;;;14.50;1.00;;;;;;5003118;28;20485;-80
2021/09/29 03:51:47;;;;;;;51.60;25.77;;;14.50;1.00;;;;;;5007809;28;20431;-79
2021/09/29 03:54:14;;;;;;;83.43;62.50;;;14.50;1.00;;;;;;5020380;28;20493;-81
2021/09/29 03:56:43;;;;;;;50.27;26.17;;;14.50;1.00;;;;;;5012545;28;20445;-82
2021/09/29 03:59:12;;;;;;;53.23;27.43;;;14.60;1.00;;;;;;4995755;28;20423;-80
2021/09/29 04:01:39;;;;;;;46.77;26.70;;;14.60;1.00;;;;;;5003938;28;21000;-85
2021/09/29 04:04:05;;;;;;;45.33;24.97;;;14.60;1.00;;;;;;4997296;28;20490;-79
2021/09/29 04:06:32;;;;;;;53.20;27.37;;;14.60;1.00;;;;;;5000179;28;20451;-84
2021/09/29 04:09:00;;;;;;;53.27;27.57;;;14.70;1.00;;;;;;4996461;28;20459;-83
2021/09/29 04:11:27;;;;;;;61.90;27.67;;;14.70;1.00;;;;;;5008157;28;20451;-81
2021/09/29 04:13:53;;;;;;;58.63;29.60;;;14.70;1.00;;;;;;4994904;28;20474;-83
2021/09/29 04:16:22;;;;;;;66.30;30.87;;;14.70;1.00;;;;;;4999982;28;20440;-82
2021/09/29 04:18:56;;;;;;;65.33;30.70;;;14.60;1.00;;;;;;5002169;28;20573;-81
2021/09/29 04:21:22;;;;;;;64.20;29.73;;;14.60;1.00;;;;;;5001696;28;20478;-82
2021/09/29 04:23:49;;;;;;;66.33;33.00;;;14.70;1.00;;;;;;5014247;28;20454;-81
2021/09/29 04:26:20;;;;;;;60.23;32.33;;;14.60;1.00;;;;;;5010719;28;20600;-80
2021/09/29 04:29:14;;;;;;;65.07;31.27;;;14.60;1.00;;;;;;5015903;28;20462;-78
2021/09/29 04:31:45;;;;;;;71.40;31.20;;;14.60;1.00;;;;;;5001218;28;20528;-77
2021/09/29 04:34:29;;;;;;;77.43;33.67;;;14.70;1.00;;;;;;5007806;28;20459;-78
2021/09/29 04:37:17;;;;;;;69.90;32.53;;;14.60;1.00;;;;;;5010531;28;20413;-78
2021/09/29 04:39:58;;;;;;;67.53;31.73;;;14.60;1.00;;;;;;4994381;28;20431;-80
2021/09/29 04:42:28;;;;;;;71.63;30.90;;;14.60;1.00;;;;;;5003069;28;20463;-80
2021/09/29 04:45:02;;;;;;;62.23;31.20;;;14.60;1.00;;;;;;5007486;28;20434;-80
2021/09/29 04:47:30;;;;;;;71.17;34.80;;;14.60;1.00;;;;;;4992715;28;20446;-84
2021/09/29 04:50:36;;;;;;;78.60;31.73;;;14.60;1.00;;;;;;4995127;28;20455;-78
2021/09/29 04:53:11;;;;;;;66.63;31.87;;;14.60;1.00;;;;;;4974105;28;20427;-79
2021/09/29 04:55:58;;;;;;;73.83;31.60;;;14.60;1.00;;;;;;4994574;28;20458;-77
2021/09/29 04:58:36;;;;;;;69.53;32.07;;;14.70;1.00;;;;;;4994061;28;21286;-77
2021/09/29 05:02:03;;;;;;;;;;;;;;;;;;;;;
2021/09/29 05:05:14;;;;;;;61.73;30.30;;;14.70;1.00;;;;;;4983270;28;20448;-79
2021/09/29 05:07:49;;;;;;;53.03;27.87;;;14.80;1.00;;;;;;4985173;28;20514;-78
2021/09/29 05:10:30;;;;;;;56.43;27.53;;;14.80;1.00;;;;;;4985659;28;20428;-79
2021/09/29 05:16:39;;;;;;;55.97;29.07;;;14.80;1.00;;;;;;4952393;28;20422;-78
2021/09/29 05:19:36;;;;;;;60.67;28.40;;;14.80;1.00;;;;;;4987801;28;20463;-79
2021/09/29 05:22:08;;;;;;;50.00;25.87;;;14.90;1.00;;;;;;4972358;28;20414;-81
2021/09/29 05:24:52;;;;;;;49.20;26.67;;;14.90;1.00;;;;;;4987959;28;20505;-77
2021/09/29 05:27:23;;;;;;;59.10;30.80;;;15.00;1.00;;;;;;4970274;28;20814;-78
2021/09/29 05:29:52;;;;;;;49.30;26.43;;;15.00;1.00;;;;;;4974184;28;20477;-78
2021/09/29 05:32:37;;;;;;;54.47;31.97;;;15.10;1.00;;;;;;4973477;28;20451;-79
2021/09/29 05:35:11;;;;;;;54.93;28.87;;;15.00;1.00;;;;;;4981415;28;21225;-78
2021/09/29 05:38:05;;;;;;;50.63;28.17;;;15.10;1.00;;;;;;4988814;28;20522;-79
2021/09/29 05:40:40;;;;;;;51.53;27.23;;;15.10;1.00;;;;;;4992458;28;20983;-80
2021/09/29 05:43:29;;;;;;;46.73;27.00;;;15.20;1.00;;;;;;4976741;28;21674;-79
2021/09/29 05:46:23;;;;;;;48.23;27.43;;;15.20;1.00;;;;;;4974822;28;20471;-81
2021/09/29 05:49:00;;;;;;;47.47;26.93;;;15.30;1.00;;;;;;4980259;28;20532;-79
2021/09/29 05:51:45;;;;;;;49.43;28.47;;;15.30;1.00;;;;;;4991271;28;20472;-79
2021/09/29 05:54:26;;;;;;;44.30;27.20;;;15.30;1.00;;;;;;4991569;28;20451;-80
2021/09/29 05:57:27;;;;;;;46.37;27.30;;;15.30;1.00;;;;;;4994503;28;20478;-79
2021/09/29 06:00:18;;;;;;;40.53;25.70;;;15.40;1.00;;;;;;4997012;28;20493;-79
2021/09/29 06:03:04;;;;;;;48.67;27.40;;;15.40;1.00;;;;;;4992406;28;20507;-80
2021/09/29 06:05:47;;;;;;;45.97;28.17;;;15.40;1.00;;;;;;4990366;28;21512;-79
2021/09/29 06:08:41;;;;;;;39.77;25.27;;;15.50;1.00;;;;;;4930823;28;20497;-79
2021/09/29 06:11:23;;;;;;;43.30;25.57;;;15.40;1.00;;;;;;4988320;28;20472;-78
2021/09/29 06:14:01;;;;;;;43.17;26.97;;;15.40;1.00;;;;;;4978186;28;20938;-79
2021/09/29 06:16:40;;;;;;;42.97;25.67;;;15.40;1.00;;;;;;4991617;28;20462;-79
2021/09/29 06:19:26;;;;;;;39.73;25.60;;;15.50;1.00;;;;;;4990587;28;20480;-79
2021/09/29 06:22:29;;;;;;;42.07;25.90;;;15.50;1.00;;;;;;4970618;28;20477;-78
2021/09/29 06:25:08;;;;;;;39.70;27.17;;;15.60;1.00;;;;;;4980408;28;20910;-80
2021/09/29 06:27:42;;;;;;;42.78;27.83;;;15.60;1.00;;;;;;4989679;28;20407;-78
2021/09/29 06:30:17;;;;;;;49.07;30.40;;;15.60;1.00;;;;;;4983366;28;20236;-79
2021/09/29 06:33:00;;;;;;;44.97;26.60;;;15.60;1.00;;;;;;4987172;28;20593;-78
2021/09/29 06:35:31;;;;;;;42.83;28.17;;;15.60;1.00;;;;;;4975901;28;20480;-79
2021/09/29 06:38:00;;;;;;;47.40;28.20;;;15.70;1.00;;;;;;4986903;28;20611;-79
2021/09/29 06:40:28;;;;;;;45.63;26.67;;;15.70;1.00;;;;;;4964867;28;20556;-78
2021/09/29 06:42:58;;;;;;;48.47;29.73;;;15.70;1.00;;;;;;4974298;28;20525;-77
2021/09/29 06:45:26;;;;;;;48.87;31.07;;;15.70;1.00;;;;;;4975780;28;21005;-79
2021/09/29 06:47:53;;;;;;;44.77;28.33;;;15.60;1.00;;;;;;4973871;28;20464;-77
2021/09/29 06:50:23;;;;;;;41.87;28.57;;;15.70;1.00;;;;;;4973926;28;20450;-77
2021/09/29 06:52:50;;;;;;;47.57;30.40;;;15.70;1.00;;;;;;4978315;28;21932;-79
2021/09/29 06:55:16;;;;;;;51.57;31.37;;;15.80;1.00;;;;;;5000458;28;20479;-79
2021/09/29 06:57:43;;;;;;;46.97;32.50;;;15.70;1.00;;;;;;4994494;28;20447;-79
2021/09/29 07:00:14;;;;;;;52.17;33.37;;;15.70;1.00;;;;;;4995685;28;20475;-78
2021/09/29 07:02:44;;;;;;;50.67;34.37;;;15.80;1.00;;;;;;4973068;28;20461;-78
2021/09/29 07:05:12;;;;;;;78.60;66.03;;;15.80;1.00;;;;;;4991969;28;21215;-79
2021/09/29 07:07:42;;;;;;;68.17;51.53;;;15.90;1.00;;;;;;4989486;28;21669;-78
2021/09/29 07:10:12;;;;;;;63.33;44.83;;;16.00;1.00;;;;;;4992998;28;20960;-78
2021/09/29 07:12:41;;;;;;;62.30;46.53;;;16.00;1.00;;;;;;4993212;28;25636;-78
2021/09/29 07:15:11;;;;;;;56.53;39.80;;;16.00;1.00;;;;;;4992130;28;20480;-78
2021/09/29 07:17:38;;;;;;;52.53;35.90;;;16.10;1.00;;;;;;4986550;28;20448;-78
2021/09/29 07:20:09;;;;;;;59.43;45.73;;;16.10;1.00;;;;;;4992024;28;20506;-77
2021/09/29 07:22:36;;;;;;;43.63;33.30;;;16.10;1.00;;;;;;4982554;28;20894;-79
2021/09/29 07:25:06;;;;;;;76.57;65.97;;;16.10;1.00;;;;;;4986270;28;20570;-79
2021/09/29 07:27:36;;;;;;;62.97;50.40;;;16.10;1.00;;;;;;4989144;28;20471;-79
2021/09/29 07:30:07;;;;;;;40.50;29.90;;;16.20;1.00;;;;;;4990800;28;20535;-78
2021/09/29 07:32:39;;;;;;;55.07;44.87;;;16.20;1.00;;;;;;4983624;28;20544;-79
2021/09/29 07:35:06;;;;;;;43.13;30.30;;;16.30;1.00;;;;;;4992812;28;20826;-79
2021/09/29 07:37:34;;;;;;;59.47;43.17;;;16.20;1.00;;;;;;4991398;28;20460;-78
2021/09/29 07:40:00;;;;;;;49.83;33.10;;;16.20;1.00;;;;;;4991632;28;22754;-78
2021/09/29 07:42:28;;;;;;;42.57;28.77;;;16.30;1.00;;;;;;4989996;28;20452;-78
2021/09/29 07:44:56;;;;;;;49.37;31.67;;;16.30;1.00;;;;;;4985691;28;20456;-77
2021/09/29 07:47:23;;;;;;;40.20;28.57;;;16.40;1.00;;;;;;4992973;28;20437;-78
2021/09/29 07:49:54;;;;;;;53.70;37.67;;;16.40;1.00;;;;;;4987686;28;20429;-78
2021/09/29 07:52:21;;;;;;;45.00;34.00;;;16.40;1.00;;;;;;4985664;28;20515;-79
2021/09/29 07:54:50;;;;;;;46.50;37.63;;;16.40;1.00;;;;;;4992986;28;20480;-79
2021/09/29 07:57:17;;;;;;;42.97;27.97;;;16.30;1.00;;;;;;4992420;28;20536;-83
2021/09/29 07:59:44;;;;;;;49.63;37.57;;;16.20;1.00;;;;;;4994591;28;20484;-79
2021/09/29 08:02:26;;;;;;;43.27;29.73;;;16.20;1.00;;;;;;4987635;28;21492;-80
2021/09/29 08:05:01;;;;;;;44.30;30.70;;;16.30;1.00;;;;;;4986671;28;22802;-79
2021/09/29 08:07:28;;;;;;;40.47;30.40;;;16.30;1.00;;;;;;4996808;28;20498;-79
2021/09/29 08:09:55;;;;;;;48.57;34.87;;;16.30;1.00;;;;;;4979652;28;20448;-78
2021/09/29 08:12:23;;;;;;;45.37;31.23;;;16.30;1.00;;;;;;4988501;28;20524;-77
2021/09/29 08:14:50;;;;;;;45.30;32.23;;;16.30;1.00;;;;;;4995076;28;20546;-79
2021/09/29 08:17:19;;;;;;;43.13;29.70;;;16.40;1.00;;;;;;4989734;28;20523;-78
2021/09/29 08:22:29;;;;;;;40.60;30.33;;;16.50;1.00;;;;;;4969576;28;20498;-78
2021/09/29 08:25:12;;;;;;;40.77;29.10;;;16.60;1.00;;;;;;4976548;28;20773;-78
2021/09/29 08:27:54;;;;;;;39.57;29.40;;;16.60;1.00;;;;;;4984168;28;20447;-78
2021/09/29 08:30:37;;;;;;;43.27;32.20;;;16.70;1.00;;;;;;4986066;28;20465;-79
2021/09/29 08:33:41;;;;;;;38.50;28.23;;;16.80;1.00;;;;;;4973628;28;20959;-79
2021/09/29 08:36:20;;;;;;;37.60;28.80;;;16.70;1.00;;;;;;4991440;28;20481;-79
2021/09/29 08:39:29;;;;;;;46.07;31.27;;;16.70;1.00;;;;;;4987626;28;21234;-79
2021/09/29 08:45:52;;;;;;;44.60;33.30;;;16.70;1.00;;;;;;4963880;28;20458;-79
2021/09/29 08:48:56;;;;;;;44.90;31.43;;;16.70;1.00;;;;;;4991516;28;20465;-84
2021/09/29 08:55:32;;;;;;;39.60;33.40;;;16.70;1.00;;;;;;5111954;27;21163;-78
2021/09/29 08:58:26;;;;;;;47.97;34.97;;;16.70;1.00;;;;;;5107371;27;20581;-78
2021/09/29 09:19:07;;;;;;;48.57;35.43;;;16.50;1.00;;;;;;5108634;27;20462;-78
2021/09/29 09:22:12;;;;;;;44.83;34.43;;;16.50;1.00;;;;;;5103655;27;20718;-78
2021/09/29 09:25:00;;;;;;;48.07;36.20;;;16.50;1.00;;;;;;5104903;27;20428;-78
2021/09/29 09:27:58;;;;;;;46.60;37.77;;;16.40;1.00;;;;;;5109090;27;20459;-79
2021/09/29 09:30:50;;;;;;;46.53;35.70;;;16.30;1.00;;;;;;5108185;27;20468;-78
2021/09/29 09:36:06;;;;;;;49.97;37.37;;;16.30;1.00;;;;;;5098420;27;20706;-79
2021/09/29 09:38:36;;;;;;;53.23;37.27;;;16.20;1.00;;;;;;5108395;27;20996;-77
2021/09/29 09:41:09;;;;;;;49.10;37.87;;;16.20;1.00;;;;;;5102100;27;20446;-79
2021/09/29 09:44:01;;;;;;;53.23;38.47;;;16.10;1.00;;;;;;5103720;27;20562;-80
2021/09/29 09:47:14;;;;;;;53.73;39.17;;;16.10;1.00;;;;;;5101487;27;20470;-80
2021/09/29 09:50:20;;;;;;;;;;;;;;;;;;;;;
2021/09/29 09:53:02;;;;;;;58.50;38.90;;;16.10;1.00;;;;;;5086233;27;20470;-79
2021/09/29 09:55:44;;;;;;;57.37;41.77;;;16.10;1.00;;;;;;5105269;27;21322;-80
2021/09/29 09:58:18;;;;;;;54.47;40.23;;;16.10;1.00;;;;;;5112896;27;20475;-80
2021/09/29 10:00:59;;;;;;;62.67;41.53;;;16.20;1.00;;;;;;5107760;27;20573;-83
2021/09/29 10:03:27;;;;;;;55.80;39.43;;;16.20;1.00;;;;;;5112360;27;20474;-84
2021/09/29 10:05:59;;;;;;;59.70;41.67;;;16.20;1.00;;;;;;5096929;27;20522;-81
2021/09/29 10:08:40;;;;;;;60.97;44.03;;;16.20;1.00;;;;;;5093709;27;20467;-80
2021/09/29 10:11:19;;;;;;;59.50;42.60;;;16.30;1.00;;;;;;5098953;27;20514;-80
2021/09/29 10:14:24;;;;;;;55.70;39.03;;;16.20;1.00;;;;;;5100326;27;20464;-79
2021/09/29 10:23:18;;;;;;;56.00;39.90;;;16.10;1.00;;;;;;5066593;27;20468;-78
2021/09/29 10:26:25;;;;;;;;;;;;;;;;;;;;;
2021/09/29 10:29:25;;;;;;;48.87;36.27;;;15.90;1.00;;;;;;5104854;27;20445;-79
2021/09/29 10:32:16;;;;;;;44.50;35.90;;;15.80;1.00;;;;;;5096790;27;20453;-79
2021/09/29 10:35:42;;;;;;;45.03;34.60;;;15.80;1.00;;;;;;5098282;27;20486;-79
2021/09/29 10:41:38;;;;;;;45.97;35.40;;;15.70;1.00;;;;;;5091825;27;20452;-79
2021/09/29 10:44:29;;;;;;;47.43;37.50;;;15.70;1.00;;;;;;5106992;27;20449;-79
2021/09/29 10:50:39;;;;;;;37.43;31.80;;;15.70;1.00;;;;;;5091059;27;20475;-79
2021/09/29 11:06:12;;;;;;;30.57;26.90;;;15.30;1.00;;;;;;5057596;27;20547;-80
2021/09/29 11:29:29;;;;;;;31.73;25.80;;;15.40;1.00;;;;;;5088661;27;20437;-78
2021/09/29 11:35:38;;;;;;;28.00;24.87;;;15.40;1.00;;;;;;5104153;27;20450;-79
2021/09/29 12:08:10;;;;;;;24.07;21.67;;;15.00;1.00;;;;;;5029511;27;21890;-78
2021/09/29 12:10:50;;;;;;;24.47;21.83;;;15.00;1.00;;;;;;5084952;27;20446;-77
2021/09/29 12:13:41;;;;;;;25.67;22.83;;;15.00;1.00;;;;;;5096592;27;20473;-77
2021/09/29 12:16:27;;;;;;;27.33;24.53;;;14.90;1.00;;;;;;5096207;27;20442;-78
2021/09/29 12:19:08;;;;;;;27.20;24.47;;;14.90;1.00;;;;;;5093436;27;20461;-78
2021/09/29 12:22:07;;;;;;;26.93;24.10;;;14.90;1.00;;;;;;5086583;27;20655;-78
2021/09/29 12:24:44;;;;;;;26.30;23.60;;;15.10;1.00;;;;;;5096774;27;20471;-79
2021/09/29 12:27:36;;;;;;;31.30;25.03;;;15.30;1.00;;;;;;5091851;27;20449;-78
2021/09/29 12:30:42;;;;;;;27.30;24.40;;;15.60;1.00;;;;;;5086347;27;20985;-78
2021/09/29 12:33:21;;;;;;;29.80;25.93;;;15.80;1.00;;;;;;5090929;27;20463;-80
2021/09/29 12:36:03;;;;;;;30.67;25.90;;;16.10;1.00;;;;;;5100012;27;20463;-79
2021/09/29 12:38:53;;;;;;;29.73;26.60;;;16.30;1.00;;;;;;5103853;27;20551;-79
2021/09/29 12:41:39;;;;;;;29.30;26.23;;;16.40;1.00;;;;;;5092587;27;20435;-78
2021/09/29 12:44:13;;;;;;;28.13;25.13;;;16.40;1.00;;;;;;5088026;27;20576;-79
2021/09/29 12:47:05;;;;;;;31.33;25.97;;;16.60;1.00;;;;;;5090257;27;20533;-79
2021/09/29 12:49:35;;;;;;;31.80;28.40;;;16.80;1.00;;;;;;5090350;27;20436;-80
2021/09/29 12:52:12;;;;;;;30.60;26.47;;;16.90;1.00;;;;;;5105617;27;21491;-81
2021/09/29 12:54:45;;;;;;;31.73;24.60;;;16.90;1.00;;;;;;5097514;27;20608;-80
2021/09/29 12:57:53;;;;;;;28.60;25.57;;;17.00;1.00;;;;;;5103249;27;20532;-81
2021/09/29 13:00:28;;;;;;;29.60;25.80;;;17.10;1.00;;;;;;5101344;27;20674;-81
2021/09/29 13:02:57;;;;;;;31.10;26.43;;;17.30;1.00;;;;;;5100743;27;21061;-79
2021/09/29 13:05:30;;;;;;;30.57;27.30;;;17.50;1.00;;;;;;5099331;27;20484;-80
2021/09/29 13:08:02;;;;;;;31.00;25.50;;;17.60;1.00;;;;;;5103179;27;20487;-81
2021/09/29 13:10:39;;;;;;;25.50;21.30;;;17.70;1.00;;;;;;5096838;27;20539;-82
2021/09/29 13:13:11;;;;;;;22.40;19.20;;;17.60;1.00;;;;;;5100767;27;20574;-81
2021/09/29 13:15:52;;;;;;;17.87;16.00;;;17.60;1.00;;;;;;5098412;27;20410;-82
2021/09/29 13:18:27;;;;;;;20.73;17.73;;;17.50;1.00;;;;;;5104219;27;20467;-82
2021/09/29 13:21:05;;;;;;;19.40;17.30;;;17.40;1.00;;;;;;5097753;27;20436;-79
2021/09/29 13:23:37;;;;;;;19.53;17.40;;;17.50;1.00;;;;;;5098818;27;20449;-85
2021/09/29 13:37:21;;;;;;;15.07;13.57;;;17.30;1.00;;;;;;5097594;27;21630;-80
2021/09/29 13:39:52;;;;;;;15.70;14.20;;;17.30;1.00;;;;;;5107416;27;20492;-83
2021/09/29 13:42:22;;;;;;;14.50;13.10;;;17.50;1.00;;;;;;5101293;27;20594;-80
2021/09/29 13:44:55;;;;;;;17.10;14.20;;;17.50;1.00;;;;;;5103682;27;21400;-81
2021/09/29 13:47:27;;;;;;;14.47;13.00;;;17.40;1.00;;;;;;5103469;27;20435;-80
2021/09/29 13:49:54;;;;;;;14.10;12.77;;;17.30;1.00;;;;;;5105556;27;20489;-82
2021/09/29 13:52:27;;;;;;;15.60;13.30;;;17.10;1.00;;;;;;5106317;27;20455;-79
2021/09/29 13:54:59;;;;;;;16.83;15.13;;;17.00;1.00;;;;;;5100682;27;20552;-80
2021/09/29 13:57:31;;;;;;;16.07;14.40;;;16.90;1.00;;;;;;5103827;27;20457;-81
2021/09/29 14:00:13;;;;;;;17.27;14.90;;;16.90;1.00;;;;;;5103275;27;20621;-81
2021/09/29 14:02:57;;;;;;;15.20;13.70;;;17.00;1.00;;;;;;5113147;27;20443;-80
2021/09/29 14:30:40;;;;;;;16.60;14.80;;;17.30;1.00;;;;;;5109679;27;22254;-81
2021/09/29 14:33:17;;;;;;;16.97;15.27;;;17.50;1.00;;;;;;5097643;27;20489;-81
2021/09/29 14:35:54;;;;;;;17.17;15.37;;;17.70;1.00;;;;;;5090854;27;21591;-81
2021/09/29 14:38:25;;;;;;;16.93;15.10;;;17.90;1.00;;;;;;5106740;27;21002;-81
2021/09/29 14:41:10;;;;;;;17.10;14.40;;;17.90;1.00;;;;;;5094186;27;20440;-80
2021/09/29 14:43:43;;;;;;;16.87;15.03;;;17.70;1.00;;;;;;5097925;27;20928;-78
2021/09/29 14:46:12;;;;;;;16.43;14.77;;;17.50;1.00;;;;;;5091704;27;20549;-78
2021/09/29 14:48:39;;;;;;;16.20;14.57;;;17.30;1.00;;;;;;5107667;27;20493;-78
2021/09/29 14:51:08;;;;;;;16.67;15.10;;;17.30;1.00;;;;;;5101830;27;20446;-79
2021/09/29 14:53:35;;;;;;;17.03;15.33;;;17.40;1.00;;;;;;5110394;27;20521;-77
2021/09/29 14:56:04;;;;;;;17.63;15.83;;;17.60;1.00;;;;;;5101471;27;20461;-77
2021/09/29 14:58:31;;;;;;;16.23;13.83;;;17.80;1.00;;;;;;5104382;27;20465;-78
2021/09/29 15:00:57;;;;;;;16.20;14.60;;;17.80;1.00;;;;;;5103096;27;20455;-78
2021/09/29 15:03:27;;;;;;;15.97;14.37;;;17.80;1.00;;;;;;5104264;27;20424;-78
2021/09/29 15:05:54;;;;;;;16.00;14.50;;;17.60;1.00;;;;;;5106441;27;20445;-78
2021/09/29 15:08:25;;;;;;;15.70;14.00;;;17.60;1.00;;;;;;5097908;27;20525;-77
2021/09/29 15:10:52;;;;;;;16.83;15.17;;;17.50;1.00;;;;;;5108128;27;20536;-78
2021/09/29 15:13:27;;;;;;;17.30;15.50;;;17.40;1.00;;;;;;5105549;27;20458;-77
2021/09/29 15:15:57;;;;;;;17.07;15.47;;;17.30;1.00;;;;;;5102772;27;20432;-77
2021/09/29 15:18:27;;;;;;;17.03;15.33;;;17.30;1.00;;;;;;5103038;27;22003;-77
2021/09/29 15:21:13;;;;;;;16.10;13.97;;;17.40;1.00;;;;;;5100937;27;20492;-77
2021/09/29 15:24:08;;;;;;;18.47;15.23;;;17.50;1.00;;;;;;5104616;27;21083;-78
2021/09/29 15:29:39;;;;;;;20.50;15.47;;;17.50;1.00;;;;;;5103224;27;20468;-78
2021/09/29 15:48:58;;;;;;;18.90;17.10;;;17.30;1.00;;;;;;5089514;27;20444;-78
2021/09/29 15:51:26;;;;;;;18.47;16.77;;;17.30;1.00;;;;;;5100610;27;20551;-77
2021/09/29 15:54:08;;;;;;;17.50;15.90;;;17.30;1.00;;;;;;5102788;27;20964;-77
2021/09/29 15:56:54;;;;;;;18.07;16.33;;;17.30;1.00;;;;;;5108353;27;20468;-78
2021/09/29 15:59:35;;;;;;;18.27;16.57;;;17.20;1.00;;;;;;5103588;27;21272;-78
2021/09/29 16:02:04;;;;;;;19.13;16.77;;;17.20;1.00;;;;;;5096305;27;20456;-78
2021/09/29 16:04:38;;;;;;;19.43;17.53;;;17.20;1.00;;;;;;5091562;27;20464;-78
2021/09/29 16:07:13;;;;;;;20.27;18.37;;;17.10;1.00;;;;;;5090539;27;20488;-79
2021/09/29 16:15:36;;;;;;;23.20;19.00;;;17.10;1.00;;;;;;5092128;27;20495;-80
2021/09/29 16:18:12;;;;;;;21.97;19.70;;;17.00;1.00;;;;;;5087526;27;21598;-79